Alden, Illinois
Current Conditions -  °F | °C
As of 3:55 PM on Sunday 25 Jan 2015 (Local Time) from KBUU Reporting Station
Clear Clear  
Wind Chill:   Ceiling: Unl
Heat Index: 23°   Visibility: 10mi
Dew Point: 13°   Wind: 18mph
Humidity: 65%   Direction: 40°NE
Pressure: 29.94"   Gusts: 24mph
Location:  42.46°N, 88.52°W
Report Text: KBUU 252155Z AUTO 04016G21KT 10SM CLR M05/M11 A2994 RMK AO2 T10501106
Loading
Personal Weather Stations






























Interactive Weather Map New forecast layout! Learn more

10-Day Weather Forecast

Advertisements
Track Severe Weather on mobile